CheckWX is a tool to help pilots better visualize weather data.  It is not intended as a substitute for an official pre-flight weather briefing.

16:11:32 UTC

KLGB METAR
Long Beach / Daugherty Field / Airport
Long Beach, California, USA
Current

19 mins ago

KLGB 191553Z 00000KT 10SM CLR 17/07 A2977 RMK AO2 SLP079 T01720067
Observed
Nov-19 @ 15:53 UTC
Visibility
10 SM
Flight Rules
VFR
Cloud Levels
  • Clear skies
Temperature
17°C / 63°F
Dewpoint
C / 45°F
Humidity
52%
Altimeter
29.77" Hg
Pressure
1008.12 hPa
Previous

1 hour ago

KLGB 191453Z 32003KT 10SM FEW110 16/08 A2977 RMK AO2 SLP079 T01610078 50004
Observed
Nov-19 @ 14:53 UTC
Wind
  • 320° at 3 KTS
Visibility
10 SM
Flight Rules
VFR
Cloud Levels
  • Few at 11,000' AGL
Temperature
16°C / 61°F
Dewpoint
C / 46°F
Humidity
59%
Altimeter
29.77" Hg
Pressure
1008.12 hPa
Previous

2 hours ago

KLGB 191353Z AUTO 00000KT 10SM CLR 16/08 A2977 RMK AO2 SLP080 T01610078
Observed
Nov-19 @ 13:53 UTC
Visibility
10 SM
Flight Rules
VFR
Cloud Levels
  • Clear skies
Temperature
16°C / 61°F
Dewpoint
C / 46°F
Humidity
59%
Altimeter
29.77" Hg
Pressure
1008.12 hPa